createdAt,value
2023-06-17T00:00:57.006Z,13.95
2023-06-17T00:03:25.736Z,15.05
2023-06-17T00:05:53.078Z,14.25
2023-06-17T00:08:20.460Z,14.93
2023-06-17T00:10:48.145Z,14.05
2023-06-17T00:13:15.513Z,14.23
2023-06-17T00:15:42.758Z,13.35
2023-06-17T00:18:10.042Z,13.20
2023-06-17T00:20:38.742Z,14.18
2023-06-17T00:23:05.979Z,14.27
2023-06-17T00:25:33.240Z,14.73
2023-06-17T00:28:00.495Z,14.60
2023-06-17T00:30:27.721Z,15.82
2023-06-17T00:32:55.184Z,15.35
2023-06-17T00:35:22.740Z,13.50
2023-06-17T00:37:51.382Z,14.45
2023-06-17T00:40:19.025Z,15.60
2023-06-17T00:45:13.542Z,15.43
2023-06-17T00:47:41.782Z,14.05
2023-06-17T00:50:10.528Z,14.75
2023-06-17T00:52:41.967Z,13.38
2023-06-17T00:55:12.094Z,13.10
2023-06-17T00:57:40.222Z,12.20
2023-06-17T01:00:09.001Z,12.40
2023-06-17T01:02:36.454Z,12.63
2023-06-17T01:05:04.005Z,12.45
2023-06-17T01:07:39.465Z,12.73
2023-06-17T01:10:13.189Z,11.82
2023-06-17T01:12:43.533Z,12.18
2023-06-17T01:15:12.539Z,12.68
2023-06-17T01:17:40.950Z,12.55
2023-06-17T01:20:09.433Z,14.25
2023-06-17T01:22:38.822Z,13.98
2023-06-17T01:25:09.015Z,13.82
2023-06-17T01:27:36.413Z,13.85
2023-06-17T01:30:04.205Z,14.40
2023-06-17T01:32:31.651Z,17.15
2023-06-17T01:35:03.760Z,14.38
2023-06-17T01:37:38.399Z,15.40
2023-06-17T01:40:11.382Z,15.50
2023-06-17T01:42:44.576Z,15.07
2023-06-17T01:45:13.850Z,15.45
2023-06-17T01:47:41.621Z,16.60
2023-06-17T01:50:09.814Z,13.77
2023-06-17T01:52:38.998Z,15.15
2023-06-17T01:55:09.383Z,15.57
2023-06-17T01:57:37.046Z,16.33
2023-06-17T02:00:05.287Z,14.80
2023-06-17T02:02:32.874Z,15.02
2023-06-17T02:05:00.198Z,17.02
2023-06-17T02:07:27.600Z,16.25
2023-06-17T02:09:54.909Z,16.33
2023-06-17T02:12:23.670Z,16.10
2023-06-17T02:14:50.949Z,18.55
2023-06-17T02:17:18.273Z,16.17
2023-06-17T02:19:47.117Z,19.13
2023-06-17T02:22:14.459Z,16.63
2023-06-17T02:24:41.959Z,15.52
2023-06-17T02:27:09.277Z,16.40
2023-06-17T02:29:38.225Z,16.33
2023-06-17T02:32:08.377Z,15.63
2023-06-17T02:34:37.891Z,15.32
2023-06-17T02:37:05.610Z,16.38
2023-06-17T02:39:32.887Z,15.02
2023-06-17T02:42:00.245Z,14.65
2023-06-17T02:44:27.599Z,15.32
2023-06-17T02:49:25.669Z,14.00
2023-06-17T02:51:52.983Z,14.35
2023-06-17T02:54:20.476Z,17.70
2023-06-17T02:56:47.778Z,16.35
2023-06-17T02:59:15.806Z,15.75
2023-06-17T03:01:43.264Z,16.45
2023-06-17T03:04:11.424Z,16.70
2023-06-17T03:06:40.956Z,17.30
2023-06-17T03:09:08.583Z,16.65
2023-06-17T03:11:36.725Z,16.90
2023-06-17T03:14:04.591Z,15.82
2023-06-17T03:16:32.363Z,16.20
2023-06-17T03:18:59.632Z,15.48
2023-06-17T03:21:27.120Z,15.40
2023-06-17T03:23:57.512Z,15.93
2023-06-17T03:26:24.835Z,15.85
2023-06-17T03:28:52.623Z,15.70
2023-06-17T03:31:21.207Z,14.95
2023-06-17T03:33:51.852Z,18.45
2023-06-17T03:36:19.257Z,15.18
2023-06-17T03:38:46.694Z,15.60
2023-06-17T03:41:16.867Z,16.25
2023-06-17T03:43:44.434Z,17.88
2023-06-17T03:46:11.792Z,16.65
2023-06-17T03:48:40.086Z,15.73
2023-06-17T03:51:07.448Z,15.68
2023-06-17T03:53:34.996Z,16.65
2023-06-17T03:56:02.364Z,16.58
2023-06-17T03:58:31.023Z,17.40
2023-06-17T04:00:59.316Z,18.17
2023-06-17T04:03:26.903Z,17.50
2023-06-17T04:05:54.229Z,18.17
2023-06-17T04:08:22.739Z,17.00
2023-06-17T04:10:50.091Z,16.33
2023-06-17T04:13:17.651Z,17.02
2023-06-17T04:15:47.938Z,19.80
2023-06-17T04:18:15.283Z,17.00
2023-06-17T04:20:42.845Z,16.85
2023-06-17T04:23:10.131Z,17.20
2023-06-17T04:25:38.206Z,15.70
2023-06-17T04:28:05.878Z,15.73
2023-06-17T04:30:33.486Z,18.15
2023-06-17T04:33:02.270Z,16.52
2023-06-17T04:35:29.862Z,17.95
2023-06-17T04:37:57.426Z,17.73
2023-06-17T04:40:25.773Z,19.73
2023-06-17T04:42:53.715Z,18.20
2023-06-17T04:47:48.206Z,16.95
2023-06-17T04:50:18.637Z,16.52
2023-06-17T04:52:47.290Z,17.38
2023-06-17T04:55:14.696Z,17.05
2023-06-17T04:57:42.714Z,17.00
2023-06-17T05:00:11.119Z,16.50
2023-06-17T05:02:38.486Z,16.35
2023-06-17T05:05:07.183Z,17.40
2023-06-17T05:07:35.982Z,16.20
2023-06-17T05:10:03.643Z,18.20
2023-06-17T05:12:31.086Z,18.33
2023-06-17T05:14:58.358Z,19.27
2023-06-17T05:17:26.008Z,18.17
2023-06-17T05:19:53.283Z,18.50
2023-06-17T05:22:20.550Z,19.05
2023-06-17T05:24:49.207Z,19.27
2023-06-17T05:27:17.060Z,18.77
2023-06-17T05:32:11.317Z,16.33
2023-06-17T05:34:38.629Z,19.23
2023-06-17T05:37:06.235Z,19.83
2023-06-17T05:39:33.537Z,19.05
2023-06-17T05:42:02.342Z,19.90
2023-06-17T05:44:29.614Z,19.58
2023-06-17T05:46:56.850Z,19.20
2023-06-17T05:49:24.113Z,22.60
2023-06-17T05:51:51.424Z,18.60
2023-06-17T05:54:18.752Z,18.58
2023-06-17T05:56:46.024Z,18.20
2023-06-17T05:59:16.695Z,18.58
2023-06-17T06:01:45.437Z,16.27
2023-06-17T06:04:12.859Z,16.95
2023-06-17T06:06:40.248Z,17.52
2023-06-17T06:09:07.551Z,16.85
2023-06-17T06:11:34.966Z,16.42
2023-06-17T06:14:02.234Z,17.40
2023-06-17T06:16:30.980Z,17.23
2023-06-17T06:18:58.315Z,17.70
2023-06-17T06:21:25.544Z,16.42
2023-06-17T06:23:53.953Z,15.10
2023-06-17T06:26:22.972Z,17.25
2023-06-17T06:28:50.250Z,16.10
2023-06-17T06:31:17.572Z,16.23
2023-06-17T06:33:46.263Z,17.23
2023-06-17T06:36:15.117Z,17.23
2023-06-17T06:38:42.408Z,15.80
2023-06-17T06:41:09.681Z,18.48
2023-06-17T06:43:36.950Z,39.15
2023-06-17T06:46:04.316Z,18.27
2023-06-17T06:48:31.695Z,18.33
2023-06-17T06:51:00.394Z,17.38
2023-06-17T06:53:28.656Z,16.05
2023-06-17T06:55:55.907Z,15.52
2023-06-17T06:58:23.204Z,16.15
2023-06-17T07:00:50.545Z,16.02
2023-06-17T07:03:17.751Z,16.13
2023-06-17T07:05:45.040Z,18.58
2023-06-17T07:08:13.730Z,15.45
2023-06-17T07:10:42.335Z,140.60
2023-06-17T07:13:09.964Z,15.95
2023-06-17T07:15:37.378Z,16.48
2023-06-17T07:18:04.847Z,16.45
2023-06-17T07:20:32.090Z,15.77
2023-06-17T07:22:59.350Z,15.75
2023-06-17T07:25:28.013Z,16.80
2023-06-17T07:27:55.702Z,15.88
2023-06-17T07:30:23.191Z,15.82
2023-06-17T07:32:50.652Z,15.20
2023-06-17T07:35:18.844Z,16.05
2023-06-17T07:37:46.258Z,15.05
2023-06-17T07:40:14.500Z,13.63
2023-06-17T07:42:43.684Z,15.30
2023-06-17T07:45:12.330Z,15.70
2023-06-17T07:47:39.805Z,16.10
2023-06-17T07:50:09.132Z,14.88
2023-06-17T07:52:36.506Z,14.90
2023-06-17T07:55:07.744Z,15.40
2023-06-17T07:57:35.882Z,14.52
2023-06-17T08:00:06.037Z,12.75
2023-06-17T08:02:33.470Z,12.77
2023-06-17T08:05:00.970Z,14.65
2023-06-17T08:07:28.440Z,13.48
2023-06-17T08:09:55.877Z,18.00
2023-06-17T08:12:23.142Z,16.38
2023-06-17T08:14:50.742Z,13.88
2023-06-17T08:17:19.394Z,13.82
2023-06-17T08:19:46.968Z,13.73
2023-06-17T08:22:14.347Z,15.07
2023-06-17T08:24:43.445Z,12.68
2023-06-17T08:27:11.247Z,13.35
2023-06-17T08:29:38.598Z,13.38
2023-06-17T08:32:06.494Z,15.23
2023-06-17T08:34:35.235Z,15.90
2023-06-17T08:37:02.675Z,14.90
2023-06-17T08:39:31.227Z,15.52
2023-06-17T08:41:58.588Z,15.38
2023-06-17T08:44:26.768Z,14.65
2023-06-17T08:46:57.834Z,15.50
2023-06-17T08:49:26.355Z,15.70
2023-06-17T08:51:56.026Z,15.63
2023-06-17T08:54:25.352Z,15.80
2023-06-17T08:56:52.693Z,16.90
2023-06-17T08:59:20.022Z,16.15
2023-06-17T09:01:52.415Z,15.55
2023-06-17T09:04:22.076Z,15.07
2023-06-17T09:06:49.401Z,16.40
2023-06-17T09:09:18.122Z,15.48
2023-06-17T09:11:52.221Z,14.02
2023-06-17T09:14:21.417Z,14.63
2023-06-17T09:16:50.609Z,14.80
2023-06-17T09:19:18.347Z,14.45
2023-06-17T09:24:14.152Z,13.57
2023-06-17T09:26:44.268Z,13.55
2023-06-17T09:29:13.146Z,12.43
2023-06-17T09:31:50.911Z,13.70
2023-06-17T09:34:18.505Z,13.77
2023-06-17T09:39:14.613Z,11.80
2023-06-17T09:41:44.812Z,12.77
2023-06-17T09:44:12.706Z,13.52
2023-06-17T09:46:39.984Z,13.32
2023-06-17T09:49:08.211Z,12.07
2023-06-17T09:51:37.031Z,11.77
2023-06-17T09:54:05.184Z,12.23
2023-06-17T09:56:33.128Z,12.10
2023-06-17T09:59:02.131Z,12.38
2023-06-17T10:01:29.508Z,18.25
2023-06-17T10:03:56.954Z,11.95
2023-06-17T10:06:26.952Z,11.60
2023-06-17T10:08:54.618Z,11.93
2023-06-17T10:13:57.115Z,11.77
2023-06-17T10:16:29.271Z,11.45
2023-06-17T10:19:00.057Z,11.77
2023-06-17T10:21:30.707Z,11.52
2023-06-17T10:24:00.578Z,12.65
2023-06-17T10:26:29.411Z,10.48
2023-06-17T10:29:02.687Z,10.65
2023-06-17T10:31:32.585Z,10.43
2023-06-17T10:34:02.127Z,11.13
2023-06-17T10:36:29.762Z,11.18
2023-06-17T10:41:54.818Z,10.35
2023-06-17T10:44:43.041Z,9.95
2023-06-17T10:47:22.324Z,8.60
2023-06-17T10:49:50.248Z,10.38
2023-06-17T10:52:18.185Z,9.50
2023-06-17T10:54:50.053Z,9.65
2023-06-17T10:57:28.585Z,9.82
2023-06-17T10:59:55.894Z,10.80
2023-06-17T11:02:24.860Z,9.85
2023-06-17T11:04:52.409Z,9.68
2023-06-17T11:07:26.652Z,9.85
2023-06-17T11:09:54.316Z,10.15
2023-06-17T11:14:48.568Z,10.40
2023-06-17T11:17:16.095Z,10.88
2023-06-17T11:22:12.549Z,10.20
2023-06-17T11:24:39.915Z,10.93
2023-06-17T11:27:07.744Z,10.95
2023-06-17T11:29:35.079Z,9.57
2023-06-17T11:32:02.841Z,12.90
2023-06-17T11:34:30.110Z,10.45
2023-06-17T11:36:59.540Z,10.80
2023-06-17T11:39:28.860Z,10.90
2023-06-17T11:41:56.742Z,11.65
2023-06-17T11:44:24.044Z,10.48
2023-06-17T11:46:54.706Z,10.10
2023-06-17T11:49:25.127Z,9.55
2023-06-17T11:51:52.512Z,10.60
2023-06-17T11:54:26.883Z,8.95
2023-06-17T11:56:54.894Z,9.32
2023-06-17T11:59:23.094Z,9.40
2023-06-17T12:01:50.762Z,9.25
2023-06-17T12:04:18.233Z,8.25
2023-06-17T12:06:47.625Z,7.85
2023-06-17T12:09:15.576Z,9.52
2023-06-17T12:11:44.355Z,7.35
2023-06-17T12:14:13.170Z,7.65
2023-06-17T12:16:41.289Z,7.55
2023-06-17T12:19:15.511Z,8.40
2023-06-17T12:21:42.878Z,7.85
2023-06-17T12:24:10.187Z,8.05
2023-06-17T12:26:37.440Z,8.43
2023-06-17T12:29:15.865Z,6.22
2023-06-17T12:31:52.260Z,4.80
2023-06-17T12:34:19.571Z,4.00
2023-06-17T12:36:46.965Z,4.38
2023-06-17T12:39:14.310Z,4.68
2023-06-17T12:41:41.608Z,5.63
2023-06-17T12:44:10.338Z,6.63
2023-06-17T12:46:37.679Z,6.63
2023-06-17T12:49:06.162Z,7.53
2023-06-17T12:51:33.397Z,8.60
2023-06-17T12:54:00.665Z,9.15
2023-06-17T12:56:28.015Z,8.68
2023-06-17T12:58:55.319Z,8.65
2023-06-17T13:01:23.994Z,9.95
2023-06-17T13:03:51.352Z,9.70
2023-06-17T13:06:18.664Z,9.65
2023-06-17T13:08:45.907Z,9.90
2023-06-17T13:11:13.288Z,9.57
2023-06-17T13:13:40.557Z,11.57
2023-06-17T13:16:07.859Z,12.40
2023-06-17T13:18:36.715Z,12.70
2023-06-17T13:21:04.082Z,13.88
2023-06-17T13:23:31.497Z,13.18
2023-06-17T13:25:58.805Z,12.35
2023-06-17T13:28:26.170Z,12.07
2023-06-17T13:31:01.678Z,10.27
2023-06-17T13:33:29.055Z,10.73
2023-06-17T13:35:57.899Z,9.88
2023-06-17T13:38:25.257Z,9.98
2023-06-17T13:40:52.557Z,9.88
2023-06-17T13:43:19.840Z,9.40
2023-06-17T13:45:47.686Z,8.90
2023-06-17T13:48:15.011Z,8.68
2023-06-17T13:50:42.280Z,9.73
2023-06-17T13:53:10.937Z,9.80
2023-06-17T13:55:38.238Z,8.60
2023-06-17T13:58:05.547Z,9.60
2023-06-17T14:00:32.845Z,8.70
2023-06-17T14:03:00.242Z,10.50
2023-06-17T14:05:27.672Z,9.07
2023-06-17T14:07:55.003Z,8.23
2023-06-17T14:10:24.012Z,9.85
2023-06-17T14:12:51.528Z,10.40
2023-06-17T14:15:18.800Z,8.48
2023-06-17T14:17:46.099Z,8.52
2023-06-17T14:20:13.630Z,8.15
2023-06-17T14:22:40.924Z,8.70
2023-06-17T14:25:08.908Z,7.82
2023-06-17T14:27:39.109Z,9.57
2023-06-17T14:30:09.434Z,7.07
2023-06-17T14:32:36.793Z,7.50
2023-06-17T14:35:04.527Z,7.53
2023-06-17T14:37:31.856Z,7.82
2023-06-17T14:39:59.306Z,7.47
2023-06-17T14:42:26.606Z,8.27
2023-06-17T14:44:55.304Z,7.53
2023-06-17T14:47:23.384Z,8.18
2023-06-17T14:49:50.661Z,6.95
2023-06-17T14:52:18.135Z,7.93
2023-06-17T14:54:45.798Z,7.65
2023-06-17T14:57:13.049Z,7.60
2023-06-17T14:59:40.272Z,7.05
2023-06-17T15:02:33.000Z,8.35
2023-06-17T15:05:00.420Z,8.02
2023-06-17T15:07:27.672Z,7.97
2023-06-17T15:09:54.932Z,9.65
2023-06-17T15:12:22.295Z,8.90
2023-06-17T15:14:49.581Z,8.00
2023-06-17T15:17:18.263Z,7.70
2023-06-17T15:19:45.535Z,7.55
2023-06-17T15:22:12.915Z,6.07
2023-06-17T15:24:40.213Z,6.00
2023-06-17T15:27:07.599Z,6.00
2023-06-17T15:29:34.847Z,5.80
2023-06-17T15:32:02.086Z,5.68
2023-06-17T15:34:30.830Z,6.68
2023-06-17T15:36:58.098Z,6.50
2023-06-17T15:39:26.871Z,6.10
2023-06-17T15:41:55.321Z,6.13
2023-06-17T15:44:22.764Z,6.38
2023-06-17T15:46:50.673Z,6.63
2023-06-17T15:49:18.718Z,6.10
2023-06-17T15:51:47.339Z,5.65
2023-06-17T15:54:14.698Z,5.72
2023-06-17T15:56:43.946Z,5.63
2023-06-17T15:59:11.207Z,6.88
2023-06-17T16:01:38.550Z,5.78
2023-06-17T16:04:33.667Z,5.63
2023-06-17T16:07:03.949Z,7.07
2023-06-17T16:09:32.439Z,6.05
2023-06-17T16:12:00.160Z,7.40
2023-06-17T16:14:28.654Z,5.88
2023-06-17T16:16:55.921Z,5.38
2023-06-17T16:19:23.261Z,6.05
2023-06-17T16:21:50.557Z,6.00
2023-06-17T16:24:19.286Z,5.85
2023-06-17T16:26:46.582Z,5.90
2023-06-17T16:29:13.910Z,5.45
2023-06-17T16:31:41.212Z,5.80
2023-06-17T16:34:08.497Z,5.63
2023-06-17T16:36:35.779Z,6.07
2023-06-17T16:39:03.295Z,6.07
2023-06-17T16:41:31.947Z,5.57
2023-06-17T16:43:59.198Z,4.95
2023-06-17T16:46:26.443Z,5.10
2023-06-17T16:48:53.952Z,5.15
2023-06-17T16:51:21.302Z,4.90
2023-06-17T16:53:48.757Z,5.28
2023-06-17T16:56:16.141Z,4.32
2023-06-17T16:58:44.811Z,5.45
2023-06-17T17:01:12.158Z,4.70
2023-06-17T17:03:39.599Z,4.28
2023-06-17T17:06:06.895Z,4.65
2023-06-17T17:08:34.501Z,4.38
2023-06-17T17:13:39.796Z,4.07
2023-06-17T17:16:16.711Z,4.82
2023-06-17T17:18:44.195Z,4.43
2023-06-17T17:21:11.456Z,4.30
2023-06-17T17:23:39.884Z,4.38
2023-06-17T17:26:07.562Z,4.32
2023-06-17T17:28:34.833Z,5.35
2023-06-17T17:31:02.633Z,4.95
2023-06-17T17:33:31.279Z,4.70
2023-06-17T17:35:58.502Z,4.43
2023-06-17T17:38:25.815Z,5.35
2023-06-17T17:40:53.279Z,5.25
2023-06-17T17:43:20.590Z,5.00
2023-06-17T17:45:47.940Z,5.10
2023-06-17T17:48:15.327Z,5.30
2023-06-17T17:50:43.973Z,5.63
2023-06-17T17:53:11.231Z,4.82
2023-06-17T17:55:38.551Z,5.05
2023-06-17T17:58:05.900Z,4.80
2023-06-17T18:00:33.256Z,6.15
2023-06-17T18:03:00.643Z,4.95
2023-06-17T18:05:27.978Z,6.22
2023-06-17T18:07:56.695Z,5.22
2023-06-17T18:10:24.261Z,5.10
2023-06-17T18:12:51.745Z,5.10
2023-06-17T18:15:19.058Z,6.50
2023-06-17T18:17:46.399Z,5.00
2023-06-17T18:20:13.754Z,6.65
2023-06-17T18:22:41.057Z,5.18
2023-06-17T18:25:10.720Z,5.75
2023-06-17T18:27:38.900Z,5.55
2023-06-17T18:30:07.550Z,5.43
2023-06-17T18:32:34.825Z,5.72
2023-06-17T18:35:02.084Z,5.70
2023-06-17T18:37:29.406Z,6.13
2023-06-17T18:39:56.701Z,6.13
2023-06-17T18:42:25.390Z,6.82
2023-06-17T18:44:52.712Z,6.47
2023-06-17T18:47:20.066Z,8.43
2023-06-17T18:49:50.435Z,6.70
2023-06-17T18:52:17.933Z,7.68
2023-06-17T18:54:45.201Z,8.10
2023-06-17T18:57:12.489Z,7.40
2023-06-17T18:59:41.107Z,6.63
2023-06-17T19:02:08.383Z,7.30
2023-06-17T19:04:35.679Z,7.25
2023-06-17T19:07:04.700Z,7.38
2023-06-17T19:09:32.134Z,7.90
2023-06-17T19:11:59.422Z,7.40
2023-06-17T19:14:26.732Z,7.53
2023-06-17T19:16:55.530Z,8.15
2023-06-17T19:19:22.904Z,8.00
2023-06-17T19:21:50.212Z,9.95
2023-06-17T19:24:17.571Z,8.45
2023-06-17T19:26:44.948Z,9.43
2023-06-17T19:29:12.317Z,8.85
2023-06-17T19:31:39.606Z,9.57
2023-06-17T19:34:08.249Z,8.32
2023-06-17T19:36:35.527Z,8.30
2023-06-17T19:39:02.784Z,9.75
2023-06-17T19:41:30.060Z,17.50
2023-06-17T19:43:57.380Z,15.90
2023-06-17T19:46:25.910Z,15.60
2023-06-17T19:48:53.292Z,13.23
2023-06-17T19:51:21.927Z,11.75
2023-06-17T19:53:49.202Z,15.45
2023-06-17T19:56:16.655Z,17.70
2023-06-17T19:58:44.112Z,18.27
2023-06-17T20:01:11.443Z,15.52
2023-06-17T20:03:38.848Z,17.30
2023-06-17T20:06:06.235Z,16.40
2023-06-17T20:08:34.886Z,16.33
2023-06-17T20:11:02.103Z,15.68
2023-06-17T20:13:29.388Z,21.60
2023-06-17T20:15:56.796Z,21.17
2023-06-17T20:18:24.151Z,21.02
2023-06-17T20:20:51.529Z,16.40
2023-06-17T20:23:18.832Z,17.60
2023-06-17T20:25:47.455Z,18.45
2023-06-17T20:28:14.684Z,17.38
2023-06-17T20:30:41.936Z,18.77
2023-06-17T20:33:09.460Z,20.55
2023-06-17T20:35:36.794Z,22.40
2023-06-17T20:38:04.049Z,22.63
2023-06-17T20:40:31.363Z,23.45
2023-06-17T20:43:00.007Z,24.52
2023-06-17T20:45:27.253Z,23.42
2023-06-17T20:47:54.584Z,25.70
2023-06-17T20:50:22.035Z,24.88
2023-06-17T20:52:49.377Z,23.70
2023-06-17T20:55:16.635Z,25.58
2023-06-17T20:57:43.913Z,26.88
2023-06-17T21:00:14.000Z,23.98
2023-06-17T21:02:41.394Z,23.42
2023-06-17T21:05:08.989Z,22.60
2023-06-17T21:07:36.382Z,21.23
2023-06-17T21:10:04.363Z,19.27
2023-06-17T21:12:31.897Z,16.20
2023-06-17T21:14:59.414Z,20.55
2023-06-17T21:17:28.079Z,25.30
2023-06-17T21:19:56.681Z,25.02
2023-06-17T21:22:24.005Z,29.80
2023-06-17T21:24:51.250Z,31.08
2023-06-17T21:27:18.826Z,24.58
2023-06-17T21:29:46.419Z,26.13
2023-06-17T21:32:13.671Z,26.27
2023-06-17T21:34:44.601Z,28.70
2023-06-17T21:37:11.841Z,27.75
2023-06-17T21:39:39.142Z,26.77
2023-06-17T21:42:06.617Z,26.48
2023-06-17T21:44:34.694Z,27.52
2023-06-17T21:47:02.139Z,25.90
2023-06-17T21:49:29.454Z,31.02
2023-06-17T21:51:58.109Z,29.77
2023-06-17T21:54:25.341Z,31.17
2023-06-17T21:56:52.661Z,30.42
2023-06-17T21:59:19.900Z,35.15
2023-06-17T22:01:47.225Z,31.05
2023-06-17T22:04:14.659Z,29.98
2023-06-17T22:06:41.891Z,29.42
2023-06-17T22:09:10.599Z,28.40
2023-06-17T22:11:37.908Z,29.65
2023-06-17T22:14:05.167Z,30.10
2023-06-17T22:16:32.457Z,31.15
2023-06-17T22:18:59.811Z,30.92
2023-06-17T22:21:27.074Z,29.75
2023-06-17T22:23:54.382Z,27.80
2023-06-17T22:26:23.170Z,30.35
2023-06-17T22:28:50.535Z,30.60
2023-06-17T22:31:17.888Z,32.38
2023-06-17T22:33:45.174Z,30.42
2023-06-17T22:36:12.548Z,30.38
2023-06-17T22:38:39.926Z,32.55
2023-06-17T22:41:07.357Z,31.35
2023-06-17T22:43:36.323Z,29.48
2023-06-17T22:46:03.865Z,29.95
2023-06-17T22:48:31.264Z,29.10
2023-06-17T22:50:58.524Z,26.88
2023-06-17T22:53:25.876Z,27.50
2023-06-17T22:55:53.142Z,27.70
2023-06-17T22:58:20.410Z,26.25
2023-06-17T23:00:49.258Z,29.60
2023-06-17T23:03:16.607Z,31.30
2023-06-17T23:05:43.974Z,30.52
2023-06-17T23:08:11.216Z,29.27
2023-06-17T23:10:38.528Z,31.02
2023-06-17T23:13:05.805Z,31.40
2023-06-17T23:15:33.466Z,30.92
2023-06-17T23:18:02.184Z,32.22
2023-06-17T23:20:29.703Z,30.42
2023-06-17T23:22:56.939Z,30.15
2023-06-17T23:25:24.144Z,31.50
2023-06-17T23:27:51.376Z,34.45
2023-06-17T23:30:18.786Z,34.13
2023-06-17T23:32:46.437Z,34.42
2023-06-17T23:35:15.306Z,34.15
2023-06-17T23:37:42.568Z,34.90
2023-06-17T23:40:10.420Z,32.15
2023-06-17T23:42:37.726Z,35.70
2023-06-17T23:45:05.714Z,31.73
2023-06-17T23:50:00.233Z,35.95
2023-06-17T23:52:28.841Z,31.98
2023-06-17T23:54:56.335Z,32.88
2023-06-17T23:57:23.624Z,31.67
2023-06-17T23:59:50.884Z,30.48
